createdAt,value
2018-05-10T00:46:54.233Z,94289.56
2018-05-10T00:49:27.503Z,94288.31
2018-05-10T00:52:01.524Z,94288.75
2018-05-10T00:54:52.369Z,94283.05
2018-05-10T00:57:25.611Z,94285.23
2018-05-10T00:59:59.661Z,94288.00
2018-05-10T02:30:55.406Z,94308.64
2018-05-10T02:33:28.659Z,94312.36
2018-05-10T02:36:01.951Z,94312.23
2018-05-10T02:38:35.216Z,94315.55
2018-05-10T02:41:08.487Z,94317.08
2018-05-10T02:43:41.740Z,94314.92
2018-05-10T03:48:05.467Z,94325.88
2018-05-10T03:50:38.748Z,94335.29
2018-05-10T03:53:12.972Z,94325.37
2018-05-10T03:55:46.229Z,94333.77
2018-05-10T03:58:19.763Z,94338.31
2018-05-10T04:33:23.013Z,94356.30
2018-05-10T04:35:57.047Z,94350.84
2018-05-10T04:38:31.724Z,94350.50
2018-05-10T04:41:04.980Z,94354.09
2018-05-10T04:43:38.257Z,94352.13
2018-05-10T04:46:11.516Z,94358.16
2018-05-10T04:48:44.793Z,94355.22
2018-05-10T04:51:18.049Z,94359.45
2018-05-10T04:53:51.334Z,94358.28
2018-05-10T04:56:24.599Z,94361.63
2018-05-10T04:58:58.761Z,94363.23
2018-05-10T05:01:32.023Z,94363.02
2018-05-10T05:04:06.131Z,94363.38
2018-05-10T05:06:40.153Z,94369.02
2018-05-10T05:09:13.453Z,94366.16
2018-05-10T05:11:46.734Z,94368.33
2018-05-10T05:14:20.780Z,94370.74
2018-05-10T05:16:54.047Z,94368.36
2018-05-10T05:19:28.079Z,94375.22
2018-05-10T05:22:01.349Z,94372.11
2018-05-10T05:24:34.727Z,94377.91
2018-05-10T05:27:08.761Z,94378.96
2018-05-10T05:29:42.093Z,94377.03
2018-05-10T05:32:15.346Z,94371.97
2018-05-10T05:34:48.631Z,94379.25
2018-05-10T05:37:21.881Z,94387.01
2018-05-10T05:39:55.167Z,94391.84
2018-05-10T05:42:28.421Z,94394.16
2018-05-10T05:45:01.696Z,94405.11
2018-05-10T05:47:35.716Z,94398.34
2018-05-10T05:50:08.983Z,94401.55
2018-05-10T05:52:42.237Z,94407.75
2018-05-10T05:55:15.512Z,94400.38
2018-05-10T05:57:48.768Z,94401.55
2018-05-10T06:00:22.037Z,94403.73
2018-05-10T06:02:55.288Z,94399.30
2018-05-10T06:05:28.593Z,94406.77
2018-05-10T06:08:01.873Z,94409.16
2018-05-10T06:10:35.888Z,94410.53
2018-05-10T06:13:09.160Z,94410.45
2018-05-10T06:15:42.502Z,94413.52
2018-05-10T06:18:15.701Z,94416.30
2018-05-10T06:20:48.965Z,94420.14
2018-05-10T06:23:23.157Z,94419.41
2018-05-10T06:25:56.503Z,94417.94
2018-05-10T06:28:29.727Z,94422.13
2018-05-10T07:03:25.740Z,94472.47
2018-05-10T07:05:58.940Z,94470.87
2018-05-10T07:08:32.250Z,94468.56
2018-05-10T07:11:06.281Z,94472.17
2018-05-10T07:13:39.543Z,94479.15
2018-05-10T07:16:38.690Z,94478.48
2018-05-10T07:19:11.955Z,94481.84
2018-05-10T07:21:45.229Z,94477.98
2018-05-10T07:24:19.292Z,94487.33
2018-05-10T07:26:52.630Z,94482.12
2018-05-10T07:29:26.700Z,94489.31
2018-05-10T07:31:59.971Z,94491.72
2018-05-10T07:34:33.228Z,94491.34
2018-05-10T07:37:07.270Z,94501.52
2018-05-10T07:39:40.534Z,94503.92
2018-05-10T07:42:13.816Z,94507.55
2018-05-10T07:44:47.121Z,94516.95
2018-05-10T07:47:20.389Z,94527.67
2018-05-10T07:49:53.618Z,94513.34
2018-05-10T07:52:27.709Z,94523.81
2018-05-10T07:55:00.960Z,94531.38
2018-05-10T07:57:34.274Z,94527.61
2018-05-10T08:00:07.542Z,94525.81
2018-05-10T08:02:40.812Z,94530.30
2018-05-10T08:05:14.109Z,94531.05
2018-05-10T08:07:48.150Z,94540.73
2018-05-10T08:10:21.418Z,94547.70
2018-05-10T08:12:54.816Z,94543.41
2018-05-10T08:15:28.837Z,94550.65
2018-05-10T08:18:02.543Z,94554.77
2018-05-10T08:20:35.805Z,94554.17
2018-05-10T08:23:09.156Z,94554.08
2018-05-10T08:25:42.416Z,94558.67
2018-05-10T08:28:16.469Z,94563.22
2018-05-10T08:30:49.763Z,94576.09
2018-05-10T08:33:23.033Z,94573.42
2018-05-10T08:35:56.289Z,94571.47
2018-05-10T08:38:29.807Z,94567.89
2018-05-10T08:41:03.070Z,94567.56
2018-05-10T08:43:36.372Z,94571.34
2018-05-10T08:46:09.627Z,94579.55
2018-05-10T08:48:43.028Z,94596.18
2018-05-10T08:51:16.269Z,94585.69
2018-05-10T08:53:50.416Z,94578.22
2018-05-10T08:56:23.680Z,94588.61
2018-05-10T08:58:56.951Z,94587.45
2018-05-10T09:01:30.220Z,94579.40
2018-05-10T09:04:03.492Z,94599.88
2018-05-10T09:06:36.743Z,94588.88
2018-05-10T09:09:10.795Z,94587.41
2018-05-10T09:11:44.068Z,94584.81
2018-05-10T09:14:18.108Z,94585.95
2018-05-10T09:16:51.362Z,94592.16
2018-05-10T09:19:25.421Z,94606.98
2018-05-10T09:21:58.728Z,94596.81
2018-05-10T09:24:32.144Z,94606.66
2018-05-10T09:27:06.226Z,94599.13
2018-05-10T09:29:39.785Z,94592.84
2018-05-10T09:32:13.008Z,94603.55
2018-05-10T09:34:46.329Z,94595.78
2018-05-10T09:37:19.592Z,94601.17
2018-05-10T09:39:52.869Z,94604.95
2018-05-10T09:42:26.120Z,94622.77
2018-05-10T09:44:59.401Z,94609.09
2018-05-10T09:47:32.650Z,94613.78
2018-05-10T09:50:06.755Z,94609.83
2018-05-10T09:52:40.667Z,94629.40
2018-05-10T09:55:14.039Z,94621.50
2018-05-10T09:57:47.483Z,94626.47
2018-05-10T10:00:27.499Z,94628.17
2018-05-10T10:03:01.521Z,94640.84
2018-05-10T10:05:35.555Z,94628.84
2018-05-10T10:08:08.831Z,94631.07
2018-05-10T10:10:42.884Z,94641.23
2018-05-10T10:13:16.814Z,94628.00
2018-05-10T10:15:50.157Z,94656.33
2018-05-10T10:18:23.392Z,94632.61
2018-05-10T10:20:56.670Z,94627.87
2018-05-10T10:23:29.928Z,94632.16
2018-05-10T10:26:03.979Z,94632.07
2018-05-10T10:28:37.298Z,94636.79
2018-05-10T10:31:12.165Z,94625.33
2018-05-10T10:33:45.772Z,94646.12
2018-05-10T10:36:19.054Z,94636.02
2018-05-10T10:38:52.332Z,94634.97
2018-05-10T10:41:25.615Z,94637.00
2018-05-10T10:43:58.859Z,94634.30
2018-05-10T10:46:32.152Z,94642.77
2018-05-10T10:49:06.184Z,94627.63
2018-05-10T10:51:40.225Z,94627.79
2018-05-10T10:54:13.481Z,94644.75
2018-05-10T10:56:46.759Z,94644.08
2018-05-10T10:59:20.816Z,94646.14
2018-05-10T11:01:54.146Z,94643.63
2018-05-10T11:04:27.368Z,94644.07
2018-05-10T11:07:00.648Z,94648.26
2018-05-10T11:09:33.904Z,94648.17
2018-05-10T11:12:07.179Z,94648.75
2018-05-10T11:14:40.431Z,94650.16
2018-05-10T11:17:13.716Z,94667.19
2018-05-10T11:19:47.069Z,94660.72
2018-05-10T11:22:20.355Z,94655.77
2018-05-10T11:24:53.621Z,94662.98
2018-05-10T11:27:26.941Z,94657.48
2018-05-10T11:30:00.233Z,94665.31
2018-05-10T11:32:33.513Z,94665.95
2018-05-10T11:35:06.768Z,94661.57
2018-05-10T11:37:40.040Z,94678.31
2018-05-10T11:40:13.302Z,94663.56
2018-05-10T11:42:46.595Z,94665.11
2018-05-10T11:45:19.853Z,94655.38
2018-05-10T11:47:53.164Z,94655.55
2018-05-10T11:50:27.194Z,94656.46
2018-05-10T11:53:00.473Z,94681.79
2018-05-10T11:55:33.735Z,94672.61
2018-05-10T11:58:07.017Z,94687.34
2018-05-10T12:00:40.272Z,94679.07
2018-05-10T12:03:13.552Z,94695.66
2018-05-10T12:05:46.812Z,94700.79
2018-05-10T12:08:38.496Z,94728.55
2018-05-10T12:11:11.749Z,94695.42
2018-05-10T12:13:45.028Z,94700.02
2018-05-10T12:16:18.280Z,94700.05
2018-05-10T12:18:51.572Z,94697.38
2018-05-10T12:21:24.855Z,94688.27
2018-05-10T12:23:58.120Z,94724.89
2018-05-10T12:26:31.385Z,94713.02
2018-05-10T12:29:04.661Z,94714.99
2018-05-10T12:31:37.920Z,94702.53
2018-05-10T12:34:11.206Z,94697.75
2018-05-10T12:36:45.211Z,94717.26
2018-05-10T12:39:19.250Z,94708.69
2018-05-10T12:41:52.505Z,94711.02
2018-05-10T12:44:25.790Z,94709.41
2018-05-10T12:46:59.048Z,94701.23
2018-05-10T12:49:32.332Z,94710.52
2018-05-10T12:52:05.598Z,94696.03
2018-05-10T12:54:39.640Z,94708.59
2018-05-10T12:57:12.901Z,94720.78
2018-05-10T12:59:46.168Z,94724.30
2018-05-10T13:02:19.428Z,94715.78
2018-05-10T13:04:52.731Z,94717.36
2018-05-10T13:07:25.997Z,94710.63
2018-05-10T13:09:59.264Z,94716.97
2018-05-10T13:12:32.522Z,94730.24
2018-05-10T13:15:05.797Z,94726.81
2018-05-10T13:17:39.069Z,94742.56
2018-05-10T13:20:12.340Z,94746.22
2018-05-10T13:22:46.369Z,94718.61
2018-05-10T13:25:19.641Z,94734.98
2018-05-10T13:27:53.663Z,94734.10
2018-05-10T13:30:26.941Z,94748.22
2018-05-10T13:33:00.201Z,94747.43
2018-05-10T13:35:33.468Z,94754.72
2018-05-10T13:38:06.728Z,94758.94
2018-05-10T13:40:40.788Z,94751.91
2018-05-10T13:43:14.057Z,94769.31
2018-05-10T13:45:47.442Z,94753.42
2018-05-10T13:48:20.707Z,94758.11
2018-05-10T13:50:54.097Z,94752.25
2018-05-10T13:53:27.352Z,94772.53
2018-05-10T13:56:00.738Z,94767.03
2018-05-10T13:58:33.992Z,94770.67
2018-05-10T14:01:07.293Z,94771.36
2018-05-10T14:03:40.559Z,94754.73
2018-05-10T14:06:13.837Z,94783.55
2018-05-10T14:08:47.116Z,94765.02
2018-05-10T14:11:20.397Z,94769.48
2018-05-10T14:13:53.651Z,94766.63
2018-05-10T14:16:26.941Z,94778.22
2018-05-10T14:19:00.179Z,94817.00
2018-05-10T14:21:33.688Z,94785.05
2018-05-10T14:24:06.944Z,94770.84
2018-05-10T14:26:40.205Z,94778.67
2018-05-10T14:29:13.471Z,94808.59
2018-05-10T14:31:46.737Z,94788.18
2018-05-10T14:34:19.999Z,94794.82
2018-05-10T14:36:53.305Z,94809.19
2018-05-10T14:39:26.595Z,94807.27
2018-05-10T14:41:59.864Z,94809.48
2018-05-10T14:44:33.121Z,94853.39
2018-05-10T14:47:06.396Z,94820.28
2018-05-10T14:49:39.660Z,94831.43
2018-05-10T14:52:12.936Z,94821.50
2018-05-10T14:54:46.198Z,94822.98
2018-05-10T14:57:19.467Z,94813.51
2018-05-10T14:59:53.640Z,94816.08
2018-05-10T15:02:26.805Z,94828.48
2018-05-10T15:05:00.061Z,94849.33
2018-05-10T15:07:33.364Z,94829.73
2018-05-10T15:10:07.388Z,94838.48
2018-05-10T15:12:40.701Z,94835.76
2018-05-10T15:15:13.959Z,94833.33
2018-05-10T15:17:47.339Z,94836.02
2018-05-10T15:20:20.596Z,94846.30
2018-05-10T15:22:53.928Z,94841.41
2018-05-10T15:25:27.184Z,94852.20
2018-05-10T15:28:00.472Z,94848.68
2018-05-10T15:30:33.730Z,94870.18
2018-05-10T15:33:07.955Z,94848.38
2018-05-10T15:35:41.211Z,94861.53
2018-05-10T15:38:16.432Z,94865.85
2018-05-10T15:40:49.703Z,94857.56
2018-05-10T15:43:22.977Z,94871.32
2018-05-10T15:45:57.002Z,94868.89
2018-05-10T15:48:30.285Z,94863.48
2018-05-10T15:51:03.541Z,94863.02
2018-05-10T15:53:36.813Z,94867.73
2018-05-10T15:56:10.846Z,94878.91
2018-05-10T15:58:44.132Z,94884.58
2018-05-10T16:01:17.513Z,94870.93
2018-05-10T16:03:50.927Z,94878.87
2018-05-10T16:06:24.235Z,94875.56
2018-05-10T16:08:57.517Z,94899.56
2018-05-10T16:11:30.776Z,94891.24
2018-05-10T16:14:04.092Z,94906.33
2018-05-10T16:16:37.346Z,94906.98
2018-05-10T16:19:10.627Z,94912.95
2018-05-10T16:21:44.684Z,94925.96
2018-05-10T16:24:17.944Z,94914.17
2018-05-10T16:26:51.257Z,94911.74
2018-05-10T16:29:24.522Z,94932.33
2018-05-10T16:31:58.663Z,94925.15
2018-05-10T16:34:31.920Z,94925.98
2018-05-10T16:37:05.315Z,94947.56
2018-05-10T16:39:38.573Z,94933.84
2018-05-10T16:42:11.868Z,94934.32
2018-05-10T16:44:45.126Z,94948.52
2018-05-10T16:47:18.426Z,94957.78
2018-05-10T16:49:51.679Z,94946.97
2018-05-10T16:52:24.981Z,94951.05
2018-05-10T16:54:58.232Z,94970.55
2018-05-10T16:57:31.540Z,94973.25
2018-05-10T17:00:04.793Z,94959.75
2018-05-10T17:02:38.070Z,94964.33
2018-05-10T17:05:11.348Z,94967.62
2018-05-10T17:07:45.505Z,94968.31
2018-05-10T17:10:18.792Z,94978.56
2018-05-10T17:12:52.854Z,94981.75
2018-05-10T17:15:26.121Z,94990.61
2018-05-10T17:17:59.419Z,95021.66
2018-05-10T17:20:32.679Z,94999.08
2018-05-10T17:23:05.980Z,95017.56
2018-05-10T17:25:39.285Z,95016.28
2018-05-10T17:28:12.565Z,95024.30
2018-05-10T17:30:45.888Z,95041.87
2018-05-10T17:33:19.373Z,95040.96
2018-05-10T17:35:52.628Z,95032.73
2018-05-10T17:38:25.925Z,95045.93
2018-05-10T17:40:59.944Z,95044.08
2018-05-10T17:43:34.015Z,95061.68
2018-05-10T17:46:07.271Z,95056.78
2018-05-10T17:48:40.561Z,95069.63
2018-05-10T17:51:13.828Z,95067.28
2018-05-10T17:53:47.107Z,95065.96
2018-05-10T17:56:20.369Z,95078.36
2018-05-10T17:58:53.651Z,95080.64
2018-05-10T18:01:26.922Z,95080.04
2018-05-10T18:04:00.989Z,95095.26
2018-05-10T18:06:34.239Z,95109.59
2018-05-10T18:09:07.527Z,95115.64
2018-05-10T18:11:40.797Z,95112.27
2018-05-10T18:14:14.100Z,95121.91
2018-05-10T18:16:47.357Z,95121.84
2018-05-10T18:19:20.770Z,95123.73
2018-05-10T18:21:54.024Z,95124.12
2018-05-10T18:24:27.645Z,95130.55
2018-05-10T18:27:00.910Z,95133.19
2018-05-10T18:29:34.188Z,95146.13
2018-05-10T18:32:07.449Z,95152.00
2018-05-10T18:34:40.719Z,95156.67
2018-05-10T18:37:38.573Z,95170.16
2018-05-10T18:40:11.849Z,95190.50
2018-05-10T18:42:45.105Z,95202.34
2018-05-10T18:45:18.606Z,95190.37
2018-05-10T18:47:51.852Z,95197.09
2018-05-10T18:50:25.126Z,95204.09
2018-05-10T18:52:58.385Z,95210.16
2018-05-10T18:55:31.675Z,95221.77
2018-05-10T18:58:09.358Z,95251.94
2018-05-10T19:00:43.818Z,95227.80
2018-05-10T19:03:17.917Z,95238.73
2018-05-10T19:05:51.354Z,95248.02
2018-05-10T19:08:24.779Z,95243.70
2018-05-10T19:10:58.175Z,95263.91
2018-05-10T19:13:31.876Z,95264.13
2018-05-10T19:16:06.406Z,95290.56
2018-05-10T19:18:39.771Z,95292.48
2018-05-10T19:21:13.061Z,95295.95
2018-05-10T19:23:46.315Z,95301.19
2018-05-10T19:26:20.366Z,95326.92
2018-05-10T19:28:53.616Z,95345.33
2018-05-10T19:31:26.888Z,95332.27
2018-05-10T19:34:00.180Z,95345.03
2018-05-10T19:36:33.453Z,95347.23
2018-05-10T19:39:06.715Z,95378.27
2018-05-10T19:41:40.754Z,95366.33
2018-05-10T19:44:14.014Z,95389.06
2018-05-10T19:46:48.051Z,95384.53
2018-05-10T19:49:21.303Z,95387.16
2018-05-10T19:51:54.580Z,95397.28
2018-05-10T19:54:27.837Z,95394.45
2018-05-10T19:57:01.142Z,95409.02
2018-05-10T19:59:35.137Z,95410.35
2018-05-10T20:02:08.420Z,95418.63
2018-05-10T20:04:41.680Z,95436.13
2018-05-10T20:07:14.975Z,95447.03
2018-05-10T20:09:48.233Z,95437.36
2018-05-10T20:12:21.580Z,95459.86
2018-05-10T20:14:54.761Z,95451.34
2018-05-10T20:17:28.037Z,95470.89
2018-05-10T20:20:01.296Z,95471.22
2018-05-10T20:22:34.569Z,95473.64
2018-05-10T20:25:08.609Z,95468.00
2018-05-10T20:27:41.861Z,95469.27
2018-05-10T20:30:15.907Z,95475.31
2018-05-10T20:32:49.173Z,95473.01
2018-05-10T20:35:23.211Z,95472.09
2018-05-10T20:37:56.480Z,95480.16
2018-05-10T20:40:29.758Z,95478.41
2018-05-10T20:43:03.089Z,95485.41
2018-05-10T20:45:36.295Z,95480.73
2018-05-10T20:48:09.549Z,95489.82
2018-05-10T20:50:42.820Z,95496.13
2018-05-10T20:53:16.081Z,95495.97
2018-05-10T20:55:49.362Z,95495.83
2018-05-10T20:58:22.646Z,95493.52
2018-05-10T21:00:55.906Z,95497.73
2018-05-10T21:03:29.220Z,95508.66
2018-05-10T21:06:02.862Z,95503.37
2018-05-10T21:08:36.166Z,95512.20
2018-05-10T21:11:09.448Z,95526.27
2018-05-10T21:13:42.701Z,95518.93
2018-05-10T21:16:16.742Z,95549.92
2018-05-10T21:18:49.999Z,95527.92
2018-05-10T21:21:23.271Z,95532.03
2018-05-10T21:23:56.551Z,95544.91
2018-05-10T21:26:29.825Z,95538.41
2018-05-10T21:29:03.083Z,95541.83
2018-05-10T21:31:36.360Z,95546.39
2018-05-10T21:34:09.623Z,95531.74
2018-05-10T21:36:42.898Z,95557.73
2018-05-10T21:39:16.159Z,95546.81
2018-05-10T21:41:49.430Z,95542.66
2018-05-10T21:44:22.683Z,95548.80
2018-05-10T21:46:55.951Z,95560.09
2018-05-10T21:49:46.856Z,95551.56
2018-05-10T21:52:20.141Z,95552.64
2018-05-10T21:54:54.228Z,95553.47
2018-05-10T21:57:27.443Z,95556.46
2018-05-10T22:00:00.708Z,95548.83
2018-05-10T22:02:33.992Z,95555.58
2018-05-10T22:05:07.302Z,95553.95
2018-05-10T22:07:40.603Z,95555.26
2018-05-10T22:10:13.852Z,95568.31
2018-05-10T22:12:47.149Z,95570.13
2018-05-10T22:15:20.400Z,95552.63
2018-05-10T22:17:54.509Z,95557.04
2018-05-10T22:20:27.759Z,95556.00
2018-05-10T22:23:01.146Z,95561.23
2018-05-10T22:25:34.404Z,95561.63
2018-05-10T22:28:08.965Z,95558.15
2018-05-10T22:30:42.223Z,95567.16
2018-05-10T22:33:16.360Z,95583.38
2018-05-10T22:35:49.656Z,95559.67
2018-05-10T22:38:22.937Z,95564.94
2018-05-10T22:40:56.192Z,95562.86
2018-05-10T22:43:29.464Z,95574.22
2018-05-10T22:46:03.433Z,95570.68
2018-05-10T22:48:36.715Z,95574.74
2018-05-10T22:51:10.728Z,95568.03
2018-05-10T22:53:44.005Z,95572.69
2018-05-10T22:56:18.039Z,95572.84
2018-05-10T22:58:52.069Z,95573.28
2018-05-10T23:01:25.328Z,95569.50
2018-05-10T23:03:59.476Z,95575.41
2018-05-10T23:06:32.727Z,95575.09
2018-05-10T23:09:06.769Z,95573.20
2018-05-10T23:11:40.030Z,95569.14
2018-05-10T23:14:13.304Z,95576.95
2018-05-10T23:16:46.565Z,95574.91
2018-05-10T23:19:19.839Z,95571.75
2018-05-10T23:21:53.100Z,95571.10
2018-05-10T23:24:26.480Z,95573.78
2018-05-10T23:26:59.759Z,95575.66
2018-05-10T23:29:33.039Z,95578.55
2018-05-10T23:32:06.297Z,95575.34
2018-05-10T23:34:39.592Z,95582.52
2018-05-10T23:37:12.888Z,95582.98
2018-05-10T23:39:46.167Z,95579.61
2018-05-10T23:42:19.434Z,95573.90
2018-05-10T23:44:52.700Z,95580.63
2018-05-10T23:47:25.961Z,95578.44
2018-05-10T23:49:59.241Z,95580.57
2018-05-10T23:52:32.497Z,95572.20
2018-05-10T23:55:05.768Z,95577.24
2018-05-10T23:57:39.012Z,95588.68
